sensor_id;sensor_type;location;lat;lon;timestamp;P1;durP1;ratioP1;P2;durP2;ratioP2
36787;SDS011;22738;45.560;9.434;2023-03-13T00:03:19;9.73;;;5.50;;
36787;SDS011;22738;45.560;9.434;2023-03-13T00:10:00;13.45;;;5.22;;
36787;SDS011;22738;45.560;9.434;2023-03-13T00:16:41;12.95;;;5.25;;
36787;SDS011;22738;45.560;9.434;2023-03-13T00:23:22;9.82;;;5.18;;
36787;SDS011;22738;45.560;9.434;2023-03-13T00:30:04;11.93;;;4.65;;
36787;SDS011;22738;45.560;9.434;2023-03-13T00:36:45;11.93;;;5.70;;
36787;SDS011;22738;45.560;9.434;2023-03-13T00:43:26;9.02;;;4.53;;
36787;SDS011;22738;45.560;9.434;2023-03-13T00:50:07;11.98;;;3.65;;
36787;SDS011;22738;45.560;9.434;2023-03-13T00:56:49;15.00;;;4.60;;
36787;SDS011;22738;45.560;9.434;2023-03-13T01:03:30;5.53;;;3.40;;
36787;SDS011;22738;45.560;9.434;2023-03-13T01:10:11;7.28;;;3.90;;
36787;SDS011;22738;45.560;9.434;2023-03-13T01:16:52;7.93;;;4.20;;
36787;SDS011;22738;45.560;9.434;2023-03-13T01:23:33;12.50;;;4.13;;
36787;SDS011;22738;45.560;9.434;2023-03-13T01:30:14;6.72;;;3.97;;
36787;SDS011;22738;45.560;9.434;2023-03-13T01:36:56;10.55;;;4.32;;
36787;SDS011;22738;45.560;9.434;2023-03-13T01:43:37;9.80;;;4.90;;
36787;SDS011;22738;45.560;9.434;2023-03-13T01:50:19;8.98;;;4.97;;
36787;SDS011;22738;45.560;9.434;2023-03-13T02:04:04;12.02;;;5.10;;
36787;SDS011;22738;45.560;9.434;2023-03-13T02:10:57;8.02;;;4.53;;
36787;SDS011;22738;45.560;9.434;2023-03-13T02:17:45;9.13;;;5.20;;
36787;SDS011;22738;45.560;9.434;2023-03-13T02:24:31;11.45;;;4.88;;
36787;SDS011;22738;45.560;9.434;2023-03-13T02:31:24;12.30;;;6.03;;
36787;SDS011;22738;45.560;9.434;2023-03-13T02:38:06;14.23;;;5.85;;
36787;SDS011;22738;45.560;9.434;2023-03-13T02:44:50;12.93;;;5.35;;
36787;SDS011;22738;45.560;9.434;2023-03-13T02:51:34;13.25;;;6.53;;
36787;SDS011;22738;45.560;9.434;2023-03-13T02:58:22;15.20;;;6.80;;
36787;SDS011;22738;45.560;9.434;2023-03-13T03:05:04;13.85;;;7.18;;
36787;SDS011;22738;45.560;9.434;2023-03-13T03:11:46;10.38;;;6.47;;
36787;SDS011;22738;45.560;9.434;2023-03-13T03:18:29;11.25;;;6.07;;
36787;SDS011;22738;45.560;9.434;2023-03-13T03:25:12;10.38;;;6.53;;
36787;SDS011;22738;45.560;9.434;2023-03-13T03:31:53;14.45;;;6.38;;
36787;SDS011;22738;45.560;9.434;2023-03-13T03:38:35;13.70;;;6.90;;
36787;SDS011;22738;45.560;9.434;2023-03-13T03:45:17;13.07;;;6.50;;
36787;SDS011;22738;45.560;9.434;2023-03-13T03:51:58;12.30;;;6.85;;
36787;SDS011;22738;45.560;9.434;2023-03-13T03:58:45;13.88;;;6.70;;
36787;SDS011;22738;45.560;9.434;2023-03-13T04:05:32;14.32;;;6.90;;
36787;SDS011;22738;45.560;9.434;2023-03-13T04:12:13;13.43;;;5.95;;
36787;SDS011;22738;45.560;9.434;2023-03-13T04:18:59;11.63;;;6.03;;
36787;SDS011;22738;45.560;9.434;2023-03-13T04:25:41;9.65;;;6.05;;
36787;SDS011;22738;45.560;9.434;2023-03-13T04:32:26;11.30;;;6.15;;
36787;SDS011;22738;45.560;9.434;2023-03-13T04:39:22;12.00;;;6.25;;
36787;SDS011;22738;45.560;9.434;2023-03-13T04:46:24;11.85;;;6.15;;
36787;SDS011;22738;45.560;9.434;2023-03-13T04:53:25;11.38;;;5.95;;
36787;SDS011;22738;45.560;9.434;2023-03-13T05:00:24;10.73;;;5.47;;
36787;SDS011;22738;45.560;9.434;2023-03-13T05:07:38;16.08;;;6.97;;
36787;SDS011;22738;45.560;9.434;2023-03-13T05:14:48;16.25;;;6.10;;
36787;SDS011;22738;45.560;9.434;2023-03-13T05:22:08;11.18;;;6.28;;
36787;SDS011;22738;45.560;9.434;2023-03-13T05:29:08;10.88;;;5.20;;
36787;SDS011;22738;45.560;9.434;2023-03-13T05:36:09;9.63;;;5.55;;
36787;SDS011;22738;45.560;9.434;2023-03-13T05:43:19;8.77;;;5.25;;
36787;SDS011;22738;45.560;9.434;2023-03-13T05:50:21;10.43;;;6.15;;
36787;SDS011;22738;45.560;9.434;2023-03-13T05:57:14;12.98;;;6.00;;
36787;SDS011;22738;45.560;9.434;2023-03-13T06:04:08;13.52;;;6.05;;
36787;SDS011;22738;45.560;9.434;2023-03-13T06:10:52;16.73;;;7.47;;
36787;SDS011;22738;45.560;9.434;2023-03-13T06:17:33;15.23;;;6.70;;
36787;SDS011;22738;45.560;9.434;2023-03-13T06:24:16;12.60;;;6.90;;
36787;SDS011;22738;45.560;9.434;2023-03-13T06:31:03;13.82;;;7.22;;
36787;SDS011;22738;45.560;9.434;2023-03-13T06:37:46;18.60;;;8.57;;
36787;SDS011;22738;45.560;9.434;2023-03-13T06:44:27;25.02;;;6.90;;
36787;SDS011;22738;45.560;9.434;2023-03-13T06:51:12;17.70;;;7.15;;
36787;SDS011;22738;45.560;9.434;2023-03-13T06:57:54;15.32;;;7.13;;
36787;SDS011;22738;45.560;9.434;2023-03-13T07:04:35;16.48;;;8.55;;
36787;SDS011;22738;45.560;9.434;2023-03-13T07:11:16;16.67;;;8.65;;
36787;SDS011;22738;45.560;9.434;2023-03-13T07:17:57;17.02;;;7.35;;
36787;SDS011;22738;45.560;9.434;2023-03-13T07:24:38;10.20;;;5.13;;
36787;SDS011;22738;45.560;9.434;2023-03-13T07:31:20;14.65;;;4.68;;
36787;SDS011;22738;45.560;9.434;2023-03-13T07:38:03;9.85;;;4.13;;
36787;SDS011;22738;45.560;9.434;2023-03-13T07:44:44;9.38;;;3.58;;
36787;SDS011;22738;45.560;9.434;2023-03-13T07:51:25;11.77;;;4.30;;
36787;SDS011;22738;45.560;9.434;2023-03-13T07:58:06;9.45;;;4.38;;
36787;SDS011;22738;45.560;9.434;2023-03-13T08:04:50;8.43;;;3.42;;
36787;SDS011;22738;45.560;9.434;2023-03-13T08:11:32;8.10;;;3.58;;
36787;SDS011;22738;45.560;9.434;2023-03-13T08:18:13;6.50;;;3.20;;
36787;SDS011;22738;45.560;9.434;2023-03-13T08:24:55;6.93;;;3.60;;
36787;SDS011;22738;45.560;9.434;2023-03-13T08:31:40;7.70;;;3.63;;
36787;SDS011;22738;45.560;9.434;2023-03-13T08:38:28;6.30;;;3.45;;
36787;SDS011;22738;45.560;9.434;2023-03-13T08:45:12;7.20;;;3.63;;
36787;SDS011;22738;45.560;9.434;2023-03-13T08:51:53;6.30;;;3.97;;
36787;SDS011;22738;45.560;9.434;2023-03-13T08:58:35;8.65;;;3.30;;
36787;SDS011;22738;45.560;9.434;2023-03-13T09:05:16;9.35;;;4.00;;
36787;SDS011;22738;45.560;9.434;2023-03-13T09:11:57;9.50;;;4.25;;
36787;SDS011;22738;45.560;9.434;2023-03-13T09:18:39;11.23;;;3.88;;
36787;SDS011;22738;45.560;9.434;2023-03-13T09:25:20;7.43;;;3.63;;
36787;SDS011;22738;45.560;9.434;2023-03-13T09:32:01;9.50;;;4.18;;
36787;SDS011;22738;45.560;9.434;2023-03-13T09:38:43;8.07;;;3.63;;
36787;SDS011;22738;45.560;9.434;2023-03-13T09:45:37;9.68;;;4.13;;
36787;SDS011;22738;45.560;9.434;2023-03-13T09:52:26;6.63;;;3.80;;
36787;SDS011;22738;45.560;9.434;2023-03-13T10:06:03;7.63;;;4.05;;
36787;SDS011;22738;45.560;9.434;2023-03-13T10:12:54;5.85;;;3.75;;
36787;SDS011;22738;45.560;9.434;2023-03-13T10:19:42;7.63;;;4.43;;
36787;SDS011;22738;45.560;9.434;2023-03-13T10:26:26;6.25;;;3.85;;
36787;SDS011;22738;45.560;9.434;2023-03-13T10:39:51;8.43;;;3.83;;
36787;SDS011;22738;45.560;9.434;2023-03-13T10:46:34;7.38;;;4.55;;
36787;SDS011;22738;45.560;9.434;2023-03-13T11:07:13;12.65;;;4.68;;
36787;SDS011;22738;45.560;9.434;2023-03-13T11:14:06;10.80;;;4.20;;
36787;SDS011;22738;45.560;9.434;2023-03-13T11:20:49;7.95;;;3.40;;
36787;SDS011;22738;45.560;9.434;2023-03-13T11:27:35;7.93;;;4.15;;
36787;SDS011;22738;45.560;9.434;2023-03-13T12:08:45;8.20;;;4.10;;
36787;SDS011;22738;45.560;9.434;2023-03-13T12:15:33;12.90;;;4.15;;
36787;SDS011;22738;45.560;9.434;2023-03-13T12:22:30;15.75;;;6.75;;
36787;SDS011;22738;45.560;9.434;2023-03-13T12:29:27;10.20;;;5.28;;
36787;SDS011;22738;45.560;9.434;2023-03-13T12:57:09;9.32;;;5.05;;
36787;SDS011;22738;45.560;9.434;2023-03-13T13:04:22;9.98;;;4.90;;
36787;SDS011;22738;45.560;9.434;2023-03-13T13:18:26;12.45;;;6.00;;
36787;SDS011;22738;45.560;9.434;2023-03-13T13:38:37;10.35;;;5.55;;
36787;SDS011;22738;45.560;9.434;2023-03-13T13:45:28;8.60;;;4.60;;
36787;SDS011;22738;45.560;9.434;2023-03-13T14:06:03;10.48;;;4.43;;
36787;SDS011;22738;45.560;9.434;2023-03-13T14:19:40;10.02;;;5.28;;
36787;SDS011;22738;45.560;9.434;2023-03-13T14:26:26;10.82;;;5.20;;
36787;SDS011;22738;45.560;9.434;2023-03-13T14:33:09;8.52;;;4.90;;
36787;SDS011;22738;45.560;9.434;2023-03-13T14:39:51;17.35;;;5.80;;
36787;SDS011;22738;45.560;9.434;2023-03-13T14:46:36;10.82;;;5.07;;
36787;SDS011;22738;45.560;9.434;2023-03-13T14:53:21;16.38;;;7.13;;
36787;SDS011;22738;45.560;9.434;2023-03-13T15:07:24;11.60;;;5.35;;
36787;SDS011;22738;45.560;9.434;2023-03-13T15:14:42;13.98;;;6.00;;
36787;SDS011;22738;45.560;9.434;2023-03-13T15:21:26;14.80;;;6.35;;
36787;SDS011;22738;45.560;9.434;2023-03-13T15:28:13;13.52;;;6.70;;
36787;SDS011;22738;45.560;9.434;2023-03-13T15:34:56;12.68;;;6.47;;
36787;SDS011;22738;45.560;9.434;2023-03-13T15:41:38;10.82;;;5.22;;
36787;SDS011;22738;45.560;9.434;2023-03-13T15:48:23;13.93;;;6.25;;
36787;SDS011;22738;45.560;9.434;2023-03-13T15:55:08;13.13;;;5.82;;
36787;SDS011;22738;45.560;9.434;2023-03-13T16:01:51;15.27;;;5.10;;
36787;SDS011;22738;45.560;9.434;2023-03-13T16:08:32;18.42;;;6.13;;
36787;SDS011;22738;45.560;9.434;2023-03-13T16:15:13;18.23;;;5.95;;
36787;SDS011;22738;45.560;9.434;2023-03-13T16:21:54;12.38;;;6.22;;
36787;SDS011;22738;45.560;9.434;2023-03-13T16:28:35;10.48;;;6.00;;
36787;SDS011;22738;45.560;9.434;2023-03-13T16:35:16;11.32;;;5.13;;
36787;SDS011;22738;45.560;9.434;2023-03-13T16:41:58;20.25;;;6.55;;
36787;SDS011;22738;45.560;9.434;2023-03-13T16:48:39;13.70;;;6.07;;
36787;SDS011;22738;45.560;9.434;2023-03-13T16:55:21;19.00;;;7.97;;
36787;SDS011;22738;45.560;9.434;2023-03-13T17:02:14;13.98;;;7.13;;
36787;SDS011;22738;45.560;9.434;2023-03-13T17:08:57;16.33;;;7.40;;
36787;SDS011;22738;45.560;9.434;2023-03-13T17:15:38;16.50;;;7.28;;
36787;SDS011;22738;45.560;9.434;2023-03-13T17:22:19;14.73;;;6.40;;
36787;SDS011;22738;45.560;9.434;2023-03-13T17:29:01;12.93;;;5.53;;
36787;SDS011;22738;45.560;9.434;2023-03-13T17:35:43;15.75;;;5.80;;
36787;SDS011;22738;45.560;9.434;2023-03-13T17:42:24;15.05;;;7.05;;
36787;SDS011;22738;45.560;9.434;2023-03-13T17:49:05;10.38;;;5.10;;
36787;SDS011;22738;45.560;9.434;2023-03-13T17:55:47;11.68;;;6.10;;
36787;SDS011;22738;45.560;9.434;2023-03-13T18:02:28;13.55;;;6.43;;
36787;SDS011;22738;45.560;9.434;2023-03-13T18:09:14;14.43;;;7.00;;
36787;SDS011;22738;45.560;9.434;2023-03-13T18:15:57;13.75;;;7.32;;
36787;SDS011;22738;45.560;9.434;2023-03-13T18:22:38;21.60;;;6.85;;
36787;SDS011;22738;45.560;9.434;2023-03-13T18:29:22;23.40;;;8.27;;
36787;SDS011;22738;45.560;9.434;2023-03-13T18:36:17;17.00;;;6.63;;
36787;SDS011;22738;45.560;9.434;2023-03-13T18:42:59;13.02;;;7.03;;
36787;SDS011;22738;45.560;9.434;2023-03-13T18:49:40;14.40;;;6.95;;
36787;SDS011;22738;45.560;9.434;2023-03-13T19:03:06;16.52;;;8.75;;
36787;SDS011;22738;45.560;9.434;2023-03-13T19:09:47;17.63;;;8.52;;
36787;SDS011;22738;45.560;9.434;2023-03-13T19:16:29;19.77;;;7.82;;
36787;SDS011;22738;45.560;9.434;2023-03-13T19:23:10;21.50;;;9.07;;
36787;SDS011;22738;45.560;9.434;2023-03-13T19:29:52;22.40;;;9.50;;
36787;SDS011;22738;45.560;9.434;2023-03-13T19:36:37;20.30;;;9.75;;
36787;SDS011;22738;45.560;9.434;2023-03-13T19:43:20;22.38;;;9.48;;
36787;SDS011;22738;45.560;9.434;2023-03-13T19:50:01;19.52;;;8.55;;
36787;SDS011;22738;45.560;9.434;2023-03-13T19:56:44;23.25;;;10.82;;
36787;SDS011;22738;45.560;9.434;2023-03-13T20:03:28;20.70;;;11.52;;
36787;SDS011;22738;45.560;9.434;2023-03-13T20:10:09;17.75;;;9.73;;
36787;SDS011;22738;45.560;9.434;2023-03-13T20:16:50;27.88;;;11.68;;
36787;SDS011;22738;45.560;9.434;2023-03-13T20:23:31;26.70;;;11.82;;
36787;SDS011;22738;45.560;9.434;2023-03-13T20:30:16;22.50;;;12.30;;
36787;SDS011;22738;45.560;9.434;2023-03-13T20:36:57;33.70;;;14.65;;
36787;SDS011;22738;45.560;9.434;2023-03-13T20:43:39;29.58;;;14.32;;
36787;SDS011;22738;45.560;9.434;2023-03-13T20:50:20;29.45;;;15.32;;
36787;SDS011;22738;45.560;9.434;2023-03-13T20:57:02;23.98;;;13.98;;
36787;SDS011;22738;45.560;9.434;2023-03-13T21:03:44;31.00;;;15.45;;
36787;SDS011;22738;45.560;9.434;2023-03-13T21:10:25;40.47;;;15.52;;
36787;SDS011;22738;45.560;9.434;2023-03-13T21:17:06;37.35;;;16.10;;
36787;SDS011;22738;45.560;9.434;2023-03-13T21:23:50;38.90;;;16.67;;
36787;SDS011;22738;45.560;9.434;2023-03-13T21:30:32;41.90;;;18.20;;
36787;SDS011;22738;45.560;9.434;2023-03-13T21:37:13;35.60;;;16.90;;
36787;SDS011;22738;45.560;9.434;2023-03-13T21:43:57;37.05;;;18.05;;
36787;SDS011;22738;45.560;9.434;2023-03-13T21:50:38;40.75;;;18.90;;
36787;SDS011;22738;45.560;9.434;2023-03-13T21:57:19;39.90;;;20.50;;
36787;SDS011;22738;45.560;9.434;2023-03-13T22:04:00;52.70;;;23.73;;
36787;SDS011;22738;45.560;9.434;2023-03-13T22:10:45;48.10;;;20.73;;
36787;SDS011;22738;45.560;9.434;2023-03-13T22:17:28;47.03;;;23.60;;
36787;SDS011;22738;45.560;9.434;2023-03-13T22:24:09;45.03;;;22.15;;
36787;SDS011;22738;45.560;9.434;2023-03-13T22:30:51;41.15;;;22.02;;
36787;SDS011;22738;45.560;9.434;2023-03-13T22:37:32;48.88;;;23.13;;
36787;SDS011;22738;45.560;9.434;2023-03-13T22:44:13;39.45;;;21.25;;
36787;SDS011;22738;45.560;9.434;2023-03-13T22:51:03;40.78;;;19.42;;
36787;SDS011;22738;45.560;9.434;2023-03-13T22:57:46;37.85;;;19.30;;
36787;SDS011;22738;45.560;9.434;2023-03-13T23:04:27;31.48;;;17.10;;
36787;SDS011;22738;45.560;9.434;2023-03-13T23:11:08;39.53;;;19.25;;
36787;SDS011;22738;45.560;9.434;2023-03-13T23:17:50;36.83;;;19.38;;
36787;SDS011;22738;45.560;9.434;2023-03-13T23:24:31;34.13;;;17.00;;
36787;SDS011;22738;45.560;9.434;2023-03-13T23:31:13;35.85;;;17.70;;
36787;SDS011;22738;45.560;9.434;2023-03-13T23:37:56;32.72;;;17.02;;
36787;SDS011;22738;45.560;9.434;2023-03-13T23:44:37;34.05;;;18.10;;
36787;SDS011;22738;45.560;9.434;2023-03-13T23:51:18;36.20;;;18.70;;
36787;SDS011;22738;45.560;9.434;2023-03-13T23:57:59;33.70;;;16.38;;
